createdAt,value
2018-05-02T00:00:26.445Z,99603
2018-05-02T00:02:55.317Z,99595
2018-05-02T00:05:23.426Z,99604
2018-05-02T00:07:52.336Z,99597
2018-05-02T00:10:20.461Z,99604
2018-05-02T00:12:48.601Z,99595
2018-05-02T00:15:16.741Z,99599
2018-05-02T00:17:45.634Z,99605
2018-05-02T00:20:13.753Z,99595
2018-05-02T00:22:41.875Z,99603
2018-05-02T00:25:09.988Z,99605
2018-05-02T00:27:38.106Z,99598
2018-05-02T00:30:06.255Z,99595
2018-05-02T00:32:34.368Z,99592
2018-05-02T00:35:02.488Z,99585
2018-05-02T00:37:31.378Z,99591
2018-05-02T00:40:00.248Z,99587
2018-05-02T00:42:28.362Z,99581
2018-05-02T00:44:56.506Z,99585
2018-05-02T00:47:24.623Z,99589
2018-05-02T00:49:52.730Z,99597
2018-05-02T00:52:20.843Z,99598
2018-05-02T00:54:49.021Z,99591
2018-05-02T00:57:17.941Z,99594
2018-05-02T00:59:46.839Z,99596
2018-05-02T01:02:14.958Z,99596
2018-05-02T01:04:43.093Z,99598
2018-05-02T01:07:11.217Z,99606
2018-05-02T01:09:39.318Z,99610
2018-05-02T01:12:08.953Z,99620
2018-05-02T01:14:37.832Z,99623
2018-05-02T01:17:05.937Z,99620
2018-05-02T01:19:34.107Z,99614
2018-05-02T01:22:03.032Z,99616
2018-05-02T01:24:31.953Z,99610
2018-05-02T01:27:00.025Z,99608
2018-05-02T01:29:28.151Z,99607
2018-05-02T01:31:57.052Z,99599
2018-05-02T01:34:25.177Z,99600
2018-05-02T01:36:53.289Z,99609
2018-05-02T01:39:22.282Z,99603
2018-05-02T01:41:50.376Z,99598
2018-05-02T01:44:19.275Z,99614
2018-05-02T01:46:47.394Z,99607
2018-05-02T01:49:24.499Z,99602
2018-05-02T01:51:52.604Z,99613
2018-05-02T01:54:21.481Z,99600
2018-05-02T01:56:49.617Z,99603
2018-05-02T01:59:17.737Z,99610
2018-05-02T02:01:46.611Z,99605
2018-05-02T02:04:15.189Z,99599
2018-05-02T02:06:43.296Z,99601
2018-05-02T02:09:11.406Z,99602
2018-05-02T02:11:39.519Z,99591
2018-05-02T02:14:07.660Z,99596
2018-05-02T02:16:35.807Z,99595
2018-05-02T02:19:04.667Z,99602
2018-05-02T02:21:32.776Z,99596
2018-05-02T02:24:00.916Z,99584
2018-05-02T02:26:29.041Z,99593
2018-05-02T02:28:57.946Z,99595
2018-05-02T02:31:26.822Z,99608
2018-05-02T02:33:55.704Z,99607
2018-05-02T02:36:25.342Z,99599
2018-05-02T02:38:54.219Z,99609
2018-05-02T02:41:23.106Z,99613
2018-05-02T02:43:51.228Z,99606
2018-05-02T02:46:19.336Z,99592
2018-05-02T02:48:47.469Z,99603
2018-05-02T02:51:16.332Z,99604
2018-05-02T02:53:45.216Z,99611
2018-05-02T02:56:14.122Z,99603
2018-05-02T02:58:42.231Z,99602
2018-05-02T03:01:11.137Z,99591
2018-05-02T03:03:39.242Z,99603
2018-05-02T03:06:07.345Z,99602
2018-05-02T03:08:35.456Z,99601
2018-05-02T03:11:03.568Z,99602
2018-05-02T03:13:31.703Z,99597
2018-05-02T03:16:00.580Z,99598
2018-05-02T03:18:29.476Z,99593
2018-05-02T03:20:57.661Z,99583
2018-05-02T03:23:27.057Z,99580
2018-05-02T03:25:55.186Z,99587
2018-05-02T03:28:23.312Z,99589
2018-05-02T03:30:51.417Z,99589
2018-05-02T03:33:19.567Z,99568
2018-05-02T03:35:47.680Z,99579
2018-05-02T03:38:15.801Z,99580
2018-05-02T03:40:43.941Z,99579
2018-05-02T03:43:12.053Z,99574
2018-05-02T03:45:40.158Z,99582
2018-05-02T03:48:08.277Z,99589
2018-05-02T03:50:36.398Z,99578
2018-05-02T03:53:04.597Z,99578
2018-05-02T03:55:32.633Z,99570
2018-05-02T03:58:00.782Z,99570
2018-05-02T04:00:46.706Z,99582
2018-05-02T04:06:37.125Z,99566
2018-05-02T04:09:06.017Z,99566
2018-05-02T04:11:34.927Z,99569
2018-05-02T04:14:03.798Z,99564
2018-05-02T04:16:31.914Z,99567
2018-05-02T04:19:00.021Z,99569
2018-05-02T04:21:28.148Z,99567
2018-05-02T04:23:57.022Z,99577
2018-05-02T04:26:25.920Z,99595
2018-05-02T04:28:54.064Z,99597
2018-05-02T04:31:22.188Z,99600
2018-05-02T04:33:51.052Z,99615
2018-05-02T04:36:19.163Z,99603
2018-05-02T04:38:48.049Z,99585
2018-05-02T04:41:16.935Z,99592
2018-05-02T04:43:45.037Z,99598
2018-05-02T04:46:13.912Z,99611
2018-05-02T04:48:42.790Z,99607
2018-05-02T04:51:11.673Z,99610
2018-05-02T04:53:39.783Z,99602
2018-05-02T04:56:08.716Z,99592
2018-05-02T04:58:36.821Z,99598
2018-05-02T05:01:04.967Z,99590
2018-05-02T05:03:33.074Z,99598
2018-05-02T05:06:01.212Z,99598
2018-05-02T05:08:29.331Z,99603
2018-05-02T05:10:57.463Z,99603
2018-05-02T05:13:25.577Z,99606
2018-05-02T05:15:53.693Z,99595
2018-05-02T05:18:22.570Z,99595
2018-05-02T05:20:50.670Z,99592
2018-05-02T05:23:19.552Z,99596
2018-05-02T05:25:48.430Z,99608
2018-05-02T05:28:16.560Z,99603
2018-05-02T05:30:44.665Z,99609
2018-05-02T05:33:12.785Z,99609
2018-05-02T05:35:41.666Z,99610
2018-05-02T05:38:09.841Z,99607
2018-05-02T05:40:37.938Z,99605
2018-05-02T05:43:06.825Z,99601
2018-05-02T05:45:34.929Z,99608
2018-05-02T05:48:03.120Z,99614
2018-05-02T05:50:31.234Z,99613
2018-05-02T05:52:59.351Z,99608
2018-05-02T05:55:28.221Z,99600
2018-05-02T05:57:56.396Z,99591
2018-05-02T06:00:24.522Z,99595
2018-05-02T06:02:52.647Z,99593
2018-05-02T06:05:20.747Z,99606
2018-05-02T06:07:49.635Z,99609
2018-05-02T06:10:18.513Z,99612
2018-05-02T06:12:46.717Z,99618
2018-05-02T06:15:14.758Z,99612
2018-05-02T06:17:42.889Z,99601
2018-05-02T06:20:10.994Z,99599
2018-05-02T06:22:39.133Z,99599
2018-05-02T06:25:08.062Z,99604
2018-05-02T06:27:36.189Z,99605
2018-05-02T06:30:04.307Z,99597
2018-05-02T06:32:32.426Z,99605
2018-05-02T06:35:00.601Z,99594
2018-05-02T06:37:28.706Z,99595
2018-05-02T06:39:57.582Z,99586
2018-05-02T06:42:27.229Z,99593
2018-05-02T06:44:55.342Z,99587
2018-05-02T06:47:23.454Z,99598
2018-05-02T06:49:51.584Z,99595
2018-05-02T06:52:19.688Z,99588
2018-05-02T06:54:47.930Z,99578
2018-05-02T06:57:15.977Z,99576
2018-05-02T06:59:44.853Z,99565
2018-05-02T07:02:12.993Z,99564
2018-05-02T07:04:41.099Z,99565
2018-05-02T07:07:09.307Z,99564
2018-05-02T07:09:37.362Z,99566
2018-05-02T07:12:05.466Z,99573
2018-05-02T07:14:34.372Z,99566
2018-05-02T07:17:02.489Z,99564
2018-05-02T07:19:31.655Z,99557
2018-05-02T07:21:59.788Z,99554
2018-05-02T07:24:27.898Z,99553
2018-05-02T07:26:56.006Z,99555
2018-05-02T07:29:24.125Z,99542
2018-05-02T07:31:52.224Z,99538
2018-05-02T07:34:21.122Z,99553
2018-05-02T07:36:49.987Z,99561
2018-05-02T07:39:18.105Z,99563
2018-05-02T07:41:46.239Z,99553
2018-05-02T07:44:15.142Z,99569
2018-05-02T07:46:43.257Z,99580
2018-05-02T07:49:11.381Z,99582
2018-05-02T07:51:40.255Z,99571
2018-05-02T07:54:08.384Z,99574
2018-05-02T07:56:37.267Z,99562
2018-05-02T07:59:06.173Z,99565
2018-05-02T08:01:35.073Z,99561
2018-05-02T08:04:03.949Z,99570
2018-05-02T08:06:32.093Z,99567
2018-05-02T08:09:00.202Z,99567
2018-05-02T08:11:28.305Z,99573
2018-05-02T08:13:56.430Z,99567
2018-05-02T08:18:59.791Z,99567
2018-05-02T08:21:28.824Z,99557
2018-05-02T08:23:56.940Z,99548
2018-05-02T08:26:25.087Z,99547
2018-05-02T08:28:53.943Z,99545
2018-05-02T08:31:22.851Z,99532
2018-05-02T08:33:50.965Z,99529
2018-05-02T08:36:19.079Z,99541
2018-05-02T08:38:48.000Z,99537
2018-05-02T08:41:16.105Z,99537
2018-05-02T08:43:44.211Z,99542
2018-05-02T08:46:12.351Z,99535
2018-05-02T08:48:40.449Z,99538
2018-05-02T08:51:08.561Z,99538
2018-05-02T08:53:37.469Z,99533
2018-05-02T08:56:06.350Z,99534
2018-05-02T08:58:35.230Z,99529
2018-05-02T09:01:04.891Z,99522
2018-05-02T09:03:33.007Z,99530
2018-05-02T09:06:01.195Z,99526
2018-05-02T09:08:29.265Z,99525
2018-05-02T09:10:58.168Z,99518
2018-05-02T09:13:26.272Z,99518
2018-05-02T09:15:55.208Z,99522
2018-05-02T09:18:23.322Z,99517
2018-05-02T09:20:51.427Z,99509
2018-05-02T09:23:19.563Z,99502
2018-05-02T09:25:47.729Z,99503
2018-05-02T09:28:15.807Z,99495
2018-05-02T09:30:43.974Z,99497
2018-05-02T09:33:12.086Z,99492
2018-05-02T09:35:40.239Z,99487
2018-05-02T09:38:08.338Z,99481
2018-05-02T09:40:36.444Z,99483
2018-05-02T09:43:04.562Z,99477
2018-05-02T09:45:32.681Z,99471
2018-05-02T09:48:01.562Z,99473
2018-05-02T09:50:30.470Z,99475
2018-05-02T09:52:59.363Z,99476
2018-05-02T09:55:28.237Z,99468
2018-05-02T09:57:56.369Z,99453
2018-05-02T10:00:24.464Z,99457
2018-05-02T10:02:52.564Z,99451
2018-05-02T10:05:20.695Z,99448
2018-05-02T10:07:48.806Z,99438
2018-05-02T10:10:16.926Z,99439
2018-05-02T10:12:45.832Z,99437
2018-05-02T10:15:13.948Z,99446
2018-05-02T10:17:42.049Z,99444
2018-05-02T10:20:10.190Z,99447
2018-05-02T10:22:38.305Z,99438
2018-05-02T10:25:06.426Z,99450
2018-05-02T10:27:34.558Z,99446
2018-05-02T10:30:02.680Z,99430
2018-05-02T10:32:30.794Z,99432
2018-05-02T10:34:58.956Z,99425
2018-05-02T10:37:27.063Z,99417
2018-05-02T10:39:55.209Z,99427
2018-05-02T10:42:23.325Z,99434
2018-05-02T10:44:51.431Z,99446
2018-05-02T10:47:20.326Z,99443
2018-05-02T10:49:49.216Z,99432
2018-05-02T10:52:18.085Z,99425
2018-05-02T10:54:46.227Z,99413
2018-05-02T10:57:14.342Z,99405
2018-05-02T10:59:42.470Z,99407
2018-05-02T11:02:10.609Z,99390
2018-05-02T11:04:39.484Z,99387
2018-05-02T11:07:07.582Z,99386
2018-05-02T11:09:35.735Z,99384
2018-05-02T11:12:03.847Z,99371
2018-05-02T11:14:32.734Z,99376
2018-05-02T11:17:01.658Z,99373
2018-05-02T11:19:29.761Z,99372
2018-05-02T11:21:57.941Z,99369
2018-05-02T11:24:26.793Z,99365
2018-05-02T11:26:55.669Z,99357
2018-05-02T11:29:23.828Z,99354
2018-05-02T11:31:51.940Z,99352
2018-05-02T11:34:20.808Z,99355
2018-05-02T11:36:48.918Z,99344
2018-05-02T11:39:17.786Z,99336
2018-05-02T11:41:45.900Z,99345
2018-05-02T11:44:14.008Z,99341
2018-05-02T11:46:42.148Z,99338
2018-05-02T11:49:10.251Z,99335
2018-05-02T11:51:38.356Z,99337
2018-05-02T11:54:06.478Z,99331
2018-05-02T11:56:34.585Z,99326
2018-05-02T11:59:02.819Z,99330
2018-05-02T12:01:31.705Z,99326
2018-05-02T12:03:59.826Z,99341
2018-05-02T12:06:27.935Z,99332
2018-05-02T12:08:56.055Z,99325
2018-05-02T12:11:24.975Z,99321
2018-05-02T12:13:53.088Z,99313
2018-05-02T12:16:21.194Z,99304
2018-05-02T12:18:49.317Z,99291
2018-05-02T12:21:17.501Z,99290
2018-05-02T12:23:46.530Z,99283
2018-05-02T12:26:14.629Z,99278
2018-05-02T12:28:43.516Z,99281
2018-05-02T12:31:13.248Z,99269
2018-05-02T12:33:41.369Z,99269
2018-05-02T12:36:09.491Z,99278
2018-05-02T12:38:37.642Z,99278
2018-05-02T12:41:06.549Z,99262
2018-05-02T12:43:34.687Z,99267
2018-05-02T12:46:02.802Z,99269
2018-05-02T12:48:30.945Z,99271
2018-05-02T12:50:59.054Z,99254
2018-05-02T12:53:27.174Z,99261
2018-05-02T12:55:55.298Z,99252
2018-05-02T12:58:23.418Z,99249
2018-05-02T13:00:51.542Z,99233
2018-05-02T13:03:19.670Z,99231
2018-05-02T13:05:47.786Z,99233
2018-05-02T13:08:15.927Z,99235
2018-05-02T13:10:44.789Z,99225
2018-05-02T13:13:12.953Z,99223
2018-05-02T13:15:41.097Z,99223
2018-05-02T13:18:09.194Z,99220
2018-05-02T13:20:37.324Z,99220
2018-05-02T13:23:06.189Z,99220
2018-05-02T13:25:34.302Z,99208
2018-05-02T13:28:02.417Z,99214
2018-05-02T13:30:30.533Z,99201
2018-05-02T13:32:58.670Z,99216
2018-05-02T13:35:26.804Z,99198
2018-05-02T13:37:55.672Z,99191
2018-05-02T13:40:23.795Z,99190
2018-05-02T13:42:51.906Z,99188
2018-05-02T13:45:20.017Z,99174
2018-05-02T13:47:48.890Z,99190
2018-05-02T13:50:17.008Z,99173
2018-05-02T13:52:45.117Z,99172
2018-05-02T13:55:13.254Z,99179
2018-05-02T13:57:42.130Z,99168
2018-05-02T14:00:11.019Z,99181
2018-05-02T14:02:39.133Z,99178
2018-05-02T14:05:07.243Z,99171
2018-05-02T14:07:35.350Z,99172
2018-05-02T14:10:03.474Z,99172
2018-05-02T14:12:31.590Z,99172
2018-05-02T14:14:59.762Z,99174
2018-05-02T14:17:27.869Z,99171
2018-05-02T14:19:56.763Z,99172
2018-05-02T14:22:24.861Z,99163
2018-05-02T14:24:53.751Z,99160
2018-05-02T14:27:22.620Z,99168
2018-05-02T14:29:50.739Z,99159
2018-05-02T14:32:18.836Z,99173
2018-05-02T14:34:46.954Z,99160
2018-05-02T14:37:15.059Z,99154
2018-05-02T14:39:43.178Z,99152
2018-05-02T14:42:11.281Z,99150
2018-05-02T14:44:40.186Z,99141
2018-05-02T14:47:08.405Z,99151
2018-05-02T14:49:36.516Z,99152
2018-05-02T14:52:05.104Z,99145
2018-05-02T14:54:33.265Z,99151
2018-05-02T14:57:01.432Z,99147
2018-05-02T14:59:29.528Z,99151
2018-05-02T15:01:57.704Z,99143
2018-05-02T15:04:25.793Z,99137
2018-05-02T15:06:53.909Z,99150
2018-05-02T15:09:22.792Z,99140
2018-05-02T15:11:50.907Z,99143
2018-05-02T15:14:19.008Z,99147
2018-05-02T15:16:47.139Z,99136
2018-05-02T15:19:16.009Z,99156
2018-05-02T15:21:44.378Z,99147
2018-05-02T15:24:12.488Z,99143
2018-05-02T15:26:40.689Z,99140
2018-05-02T15:29:08.803Z,99143
2018-05-02T15:31:36.921Z,99138
2018-05-02T15:34:05.801Z,99135
2018-05-02T15:36:33.933Z,99134
2018-05-02T15:39:02.050Z,99137
2018-05-02T15:41:30.222Z,99140
2018-05-02T15:43:58.291Z,99121
2018-05-02T15:46:26.423Z,99128
2018-05-02T15:48:54.524Z,99128
2018-05-02T15:51:22.645Z,99119
2018-05-02T15:53:50.743Z,99112
2018-05-02T15:56:19.630Z,99107
2018-05-02T15:58:48.502Z,99105
2018-05-02T16:01:16.612Z,99117
2018-05-02T16:03:44.728Z,99111
2018-05-02T16:06:12.849Z,99113
2018-05-02T16:08:41.718Z,99107
2018-05-02T16:11:09.838Z,99107
2018-05-02T16:13:37.943Z,99106
2018-05-02T16:16:06.073Z,99105
2018-05-02T16:18:35.012Z,99096
2018-05-02T16:21:03.060Z,99095
2018-05-02T16:23:31.955Z,99083
2018-05-02T16:26:00.850Z,99083
2018-05-02T16:28:29.731Z,99090
2018-05-02T16:30:58.597Z,99090
2018-05-02T16:33:28.391Z,99092
2018-05-02T16:35:56.489Z,99090
2018-05-02T16:38:24.605Z,99080
2018-05-02T16:40:53.473Z,99085
2018-05-02T16:43:21.600Z,99083
2018-05-02T16:45:49.696Z,99086
2018-05-02T16:48:17.815Z,99087
2018-05-02T16:50:46.700Z,99090
2018-05-02T16:53:14.817Z,99087
2018-05-02T16:55:42.924Z,99088
2018-05-02T16:58:11.057Z,99082
2018-05-02T17:00:39.971Z,99093
2018-05-02T17:03:08.101Z,99091
2018-05-02T17:05:36.215Z,99086
2018-05-02T17:08:04.325Z,99100
2018-05-02T17:10:32.429Z,99085
2018-05-02T17:13:00.543Z,99084
2018-05-02T17:15:28.662Z,99091
2018-05-02T17:17:56.772Z,99093
2018-05-02T17:20:25.665Z,99091
2018-05-02T17:22:53.795Z,99095
2018-05-02T17:25:21.916Z,99091
2018-05-02T17:27:50.042Z,99102
2018-05-02T17:30:18.153Z,99094
2018-05-02T17:32:46.278Z,99096
2018-05-02T17:35:14.387Z,99100
2018-05-02T17:37:42.501Z,99091
2018-05-02T17:40:11.394Z,99092
2018-05-02T17:42:39.520Z,99099
2018-05-02T17:45:07.659Z,99090
2018-05-02T17:47:36.573Z,99097
2018-05-02T17:50:05.444Z,99092
2018-05-02T17:52:33.558Z,99093
2018-05-02T17:55:01.686Z,99091
2018-05-02T17:57:29.797Z,99090
2018-05-02T17:59:58.710Z,99084
2018-05-02T18:02:26.836Z,99088
2018-05-02T18:04:54.983Z,99090
2018-05-02T18:07:23.113Z,99091
2018-05-02T18:09:51.999Z,99083
2018-05-02T18:12:20.109Z,99085
2018-05-02T18:14:48.241Z,99094
2018-05-02T18:17:16.375Z,99085
2018-05-02T18:19:44.493Z,99093
2018-05-02T18:22:12.628Z,99087
2018-05-02T18:24:40.750Z,99081
2018-05-02T18:27:08.870Z,99088
2018-05-02T18:29:36.999Z,99083
2018-05-02T18:32:05.134Z,99083
2018-05-02T18:34:33.250Z,99081
2018-05-02T18:37:02.142Z,99075
2018-05-02T18:39:30.534Z,99087
2018-05-02T18:41:58.729Z,99095
2018-05-02T18:44:26.808Z,99097
2018-05-02T18:46:55.684Z,99094
2018-05-02T18:49:23.803Z,99089
2018-05-02T18:51:51.916Z,99091
2018-05-02T18:54:20.038Z,99087
2018-05-02T18:56:48.924Z,99088
2018-05-02T18:59:17.077Z,99086
2018-05-02T19:01:45.177Z,99083
2018-05-02T19:04:13.301Z,99088
2018-05-02T19:06:41.436Z,99097
2018-05-02T19:09:10.170Z,99091
2018-05-02T19:11:38.292Z,99099
2018-05-02T19:14:06.432Z,99102
2018-05-02T19:16:34.541Z,99104
2018-05-02T19:19:08.127Z,99103
2018-05-02T19:21:36.252Z,99107
2018-05-02T19:24:05.137Z,99104
2018-05-02T19:26:37.088Z,99104
2018-05-02T19:29:05.196Z,99103
2018-05-02T19:31:38.779Z,99098
2018-05-02T19:34:06.889Z,99094
2018-05-02T19:36:35.021Z,99098
2018-05-02T19:39:03.126Z,99101
2018-05-02T19:41:37.492Z,99111
2018-05-02T19:44:06.451Z,99116
2018-05-02T19:46:34.562Z,99114
2018-05-02T19:49:02.662Z,99113
2018-05-02T19:51:36.185Z,99114
2018-05-02T19:54:05.062Z,99106
2018-05-02T19:56:33.206Z,99103
2018-05-02T19:59:01.324Z,99098
2018-05-02T20:01:34.958Z,99091
2018-05-02T20:04:03.070Z,99098
2018-05-02T20:06:31.189Z,99099
2018-05-02T20:09:05.650Z,99097
2018-05-02T20:11:39.178Z,99093
2018-05-02T20:14:08.051Z,99097
2018-05-02T20:16:36.184Z,99097
2018-05-02T20:19:04.322Z,99087
2018-05-02T20:21:32.433Z,99081
2018-05-02T20:24:00.563Z,99080
2018-05-02T20:26:28.937Z,99075
2018-05-02T20:28:57.044Z,99077
2018-05-02T20:31:25.163Z,99081
2018-05-02T20:33:54.042Z,99083
2018-05-02T20:36:22.213Z,99071
2018-05-02T20:38:50.315Z,99069
2018-05-02T20:41:19.221Z,99067
2018-05-02T20:43:47.332Z,99068
2018-05-02T20:46:15.489Z,99066
2018-05-02T20:48:43.594Z,99069
2018-05-02T20:51:11.717Z,99073
2018-05-02T20:53:40.585Z,99082
2018-05-02T20:56:08.713Z,99074
2018-05-02T20:58:36.853Z,99079
2018-05-02T21:01:04.969Z,99083
2018-05-02T21:03:33.072Z,99076
2018-05-02T21:06:01.191Z,99073
2018-05-02T21:08:30.078Z,99080
2018-05-02T21:10:58.230Z,99073
2018-05-02T21:13:27.113Z,99076
2018-05-02T21:15:55.226Z,99078
2018-05-02T21:18:23.343Z,99078
2018-05-02T21:20:51.488Z,99073
2018-05-02T21:23:19.594Z,99065
2018-05-02T21:25:47.694Z,99041
2018-05-02T21:28:15.814Z,99029
2018-05-02T21:30:43.941Z,99034
2018-05-02T21:33:12.068Z,99036
2018-05-02T21:35:40.166Z,99052
2018-05-02T21:38:09.064Z,99039
2018-05-02T21:40:37.202Z,99041
2018-05-02T21:43:05.294Z,99038
2018-05-02T21:45:33.414Z,99048
2018-05-02T21:48:01.531Z,99062
2018-05-02T21:50:29.642Z,99070
2018-05-02T21:52:58.514Z,99059
2018-05-02T21:55:26.626Z,99040
2018-05-02T21:57:54.739Z,99053
2018-05-02T22:00:23.628Z,99051
2018-05-02T22:02:51.734Z,99040
2018-05-02T22:05:19.956Z,99044
2018-05-02T22:07:47.981Z,99057
2018-05-02T22:10:16.085Z,99060
2018-05-02T22:12:44.987Z,99052
2018-05-02T22:15:13.108Z,99059
2018-05-02T22:17:41.202Z,99048
2018-05-02T22:20:09.335Z,99059
2018-05-02T22:22:37.442Z,99056
2018-05-02T22:25:05.556Z,99059
2018-05-02T22:27:33.736Z,99070
2018-05-02T22:30:01.853Z,99063
2018-05-02T22:32:29.967Z,99059
2018-05-02T22:34:58.072Z,99073
2018-05-02T22:37:26.953Z,99075
2018-05-02T22:39:55.063Z,99067
2018-05-02T22:42:23.168Z,99060
2018-05-02T22:44:51.280Z,99065
2018-05-02T22:47:19.393Z,99072
2018-05-02T22:49:47.494Z,99057
2018-05-02T22:52:15.615Z,99062
2018-05-02T22:54:43.713Z,99059
2018-05-02T22:57:12.608Z,99065
2018-05-02T22:59:41.484Z,99070
2018-05-02T23:02:09.612Z,99070
2018-05-02T23:04:37.742Z,99072
2018-05-02T23:07:05.850Z,99082
2018-05-02T23:09:33.961Z,99075
2018-05-02T23:12:02.102Z,99090
2018-05-02T23:14:30.210Z,99080
2018-05-02T23:16:58.317Z,99073
2018-05-02T23:19:26.426Z,99078
2018-05-02T23:21:55.296Z,99064
2018-05-02T23:24:23.435Z,99055
2018-05-02T23:26:51.541Z,99048
2018-05-02T23:29:19.645Z,99055
2018-05-02T23:31:48.533Z,99069
2018-05-02T23:34:17.402Z,99063
2018-05-02T23:36:45.524Z,99062
2018-05-02T23:39:13.646Z,99052
2018-05-02T23:41:41.758Z,99053
2018-05-02T23:44:10.643Z,99069
2018-05-02T23:46:38.748Z,99074
2018-05-02T23:49:06.866Z,99079
2018-05-02T23:51:35.002Z,99082
2018-05-02T23:54:03.108Z,99079
2018-05-02T23:56:31.205Z,99060
2018-05-02T23:58:59.330Z,99051
